sensor_id;sensor_type;location;lat;lon;timestamp;pressure;altitude;pressure_sealevel;temperature;humidity
3122;BME280;1571;52.524;14.104;2023-03-13T00:01:11;100181.22;;;4.71;100.00
3122;BME280;1571;52.524;14.104;2023-03-13T00:03:40;100192.19;;;4.79;100.00
3122;BME280;1571;52.524;14.104;2023-03-13T00:06:08;100185.31;;;4.76;100.00
3122;BME280;1571;52.524;14.104;2023-03-13T00:08:36;100192.72;;;4.87;100.00
3122;BME280;1571;52.524;14.104;2023-03-13T00:11:06;100192.88;;;4.84;100.00
3122;BME280;1571;52.524;14.104;2023-03-13T00:13:36;100195.84;;;4.95;100.00
3122;BME280;1571;52.524;14.104;2023-03-13T00:16:05;100189.84;;;4.92;100.00
3122;BME280;1571;52.524;14.104;2023-03-13T00:18:35;100193.28;;;4.94;100.00
3122;BME280;1571;52.524;14.104;2023-03-13T00:21:05;100191.41;;;4.96;100.00
3122;BME280;1571;52.524;14.104;2023-03-13T00:23:34;100198.16;;;5.01;100.00
3122;BME280;1571;52.524;14.104;2023-03-13T00:26:05;100188.63;;;4.99;100.00
3122;BME280;1571;52.524;14.104;2023-03-13T00:28:37;100190.91;;;4.88;100.00
3122;BME280;1571;52.524;14.104;2023-03-13T00:31:07;100197.59;;;4.95;100.00
3122;BME280;1571;52.524;14.104;2023-03-13T00:33:37;100189.41;;;5.01;100.00
3122;BME280;1571;52.524;14.104;2023-03-13T00:36:08;100183.03;;;4.88;100.00
3122;BME280;1571;52.524;14.104;2023-03-13T00:38:36;100188.44;;;4.85;100.00
3122;BME280;1571;52.524;14.104;2023-03-13T00:41:06;100181.47;;;4.84;100.00
3122;BME280;1571;52.524;14.104;2023-03-13T00:43:36;100182.53;;;4.79;100.00
3122;BME280;1571;52.524;14.104;2023-03-13T00:46:04;100183.63;;;4.75;100.00
3122;BME280;1571;52.524;14.104;2023-03-13T00:48:33;100188.94;;;4.74;100.00
3122;BME280;1571;52.524;14.104;2023-03-13T00:51:02;100180.47;;;4.86;100.00
3122;BME280;1571;52.524;14.104;2023-03-13T00:53:31;100190.00;;;4.89;100.00
3122;BME280;1571;52.524;14.104;2023-03-13T00:56:01;100174.78;;;4.95;100.00
3122;BME280;1571;52.524;14.104;2023-03-13T00:58:32;100166.91;;;4.95;100.00
3122;BME280;1571;52.524;14.104;2023-03-13T01:01:10;100167.66;;;4.97;100.00
3122;BME280;1571;52.524;14.104;2023-03-13T01:03:39;100170.22;;;4.99;100.00
3122;BME280;1571;52.524;14.104;2023-03-13T01:06:10;100170.31;;;5.15;100.00
3122;BME280;1571;52.524;14.104;2023-03-13T01:08:39;100157.69;;;5.04;100.00
3122;BME280;1571;52.524;14.104;2023-03-13T01:11:08;100161.97;;;5.07;100.00
3122;BME280;1571;52.524;14.104;2023-03-13T01:13:37;100162.09;;;5.04;100.00
3122;BME280;1571;52.524;14.104;2023-03-13T01:16:07;100159.97;;;5.12;100.00
3122;BME280;1571;52.524;14.104;2023-03-13T01:18:38;100168.06;;;5.07;100.00
3122;BME280;1571;52.524;14.104;2023-03-13T01:21:07;100178.03;;;5.00;100.00
3122;BME280;1571;52.524;14.104;2023-03-13T01:23:36;100181.13;;;5.09;100.00
3122;BME280;1571;52.524;14.104;2023-03-13T01:26:06;100179.78;;;5.19;100.00
3122;BME280;1571;52.524;14.104;2023-03-13T01:28:35;100177.97;;;5.19;100.00
3122;BME280;1571;52.524;14.104;2023-03-13T01:31:10;100175.53;;;5.34;100.00
3122;BME280;1571;52.524;14.104;2023-03-13T01:33:40;100171.72;;;5.22;100.00
3122;BME280;1571;52.524;14.104;2023-03-13T01:36:08;100179.38;;;5.27;100.00
3122;BME280;1571;52.524;14.104;2023-03-13T01:38:37;100180.94;;;5.31;100.00
3122;BME280;1571;52.524;14.104;2023-03-13T01:41:06;100183.41;;;5.16;100.00
3122;BME280;1571;52.524;14.104;2023-03-13T01:43:35;100181.09;;;5.28;100.00
3122;BME280;1571;52.524;14.104;2023-03-13T01:46:10;100174.59;;;5.35;100.00
3122;BME280;1571;52.524;14.104;2023-03-13T01:48:52;100187.75;;;5.35;100.00
3122;BME280;1571;52.524;14.104;2023-03-13T01:51:24;100171.03;;;5.53;100.00
3122;BME280;1571;52.524;14.104;2023-03-13T01:54:00;100174.00;;;5.47;100.00
3122;BME280;1571;52.524;14.104;2023-03-13T01:56:36;100165.53;;;5.58;100.00
3122;BME280;1571;52.524;14.104;2023-03-13T01:59:08;100163.06;;;5.55;100.00
3122;BME280;1571;52.524;14.104;2023-03-13T02:01:39;100164.69;;;5.57;100.00
3122;BME280;1571;52.524;14.104;2023-03-13T02:04:09;100160.69;;;5.50;100.00
3122;BME280;1571;52.524;14.104;2023-03-13T02:06:40;100150.81;;;5.54;100.00
3122;BME280;1571;52.524;14.104;2023-03-13T02:09:13;100152.00;;;5.48;100.00
3122;BME280;1571;52.524;14.104;2023-03-13T02:11:48;100145.41;;;5.57;100.00
3122;BME280;1571;52.524;14.104;2023-03-13T02:14:20;100142.84;;;5.55;100.00
3122;BME280;1571;52.524;14.104;2023-03-13T02:16:51;100143.63;;;5.57;100.00
3122;BME280;1571;52.524;14.104;2023-03-13T02:19:27;100143.03;;;5.52;100.00
3122;BME280;1571;52.524;14.104;2023-03-13T02:22:03;100139.22;;;5.58;100.00
3122;BME280;1571;52.524;14.104;2023-03-13T02:24:36;100130.78;;;5.51;100.00
3122;BME280;1571;52.524;14.104;2023-03-13T02:27:10;100121.78;;;5.55;100.00
3122;BME280;1571;52.524;14.104;2023-03-13T02:29:41;100130.94;;;5.48;100.00
3122;BME280;1571;52.524;14.104;2023-03-13T02:32:10;100122.56;;;5.57;100.00
3122;BME280;1571;52.524;14.104;2023-03-13T02:34:40;100120.94;;;5.55;100.00
3122;BME280;1571;52.524;14.104;2023-03-13T02:37:10;100102.44;;;5.56;100.00
3122;BME280;1571;52.524;14.104;2023-03-13T02:39:42;100104.53;;;5.50;100.00
3122;BME280;1571;52.524;14.104;2023-03-13T02:42:15;100114.44;;;5.45;100.00
3122;BME280;1571;52.524;14.104;2023-03-13T02:44:46;100114.44;;;5.45;100.00
3122;BME280;1571;52.524;14.104;2023-03-13T02:47:17;100104.78;;;5.45;100.00
3122;BME280;1571;52.524;14.104;2023-03-13T02:49:45;100098.75;;;5.43;100.00
3122;BME280;1571;52.524;14.104;2023-03-13T02:52:19;100103.66;;;5.49;100.00
3122;BME280;1571;52.524;14.104;2023-03-13T02:54:52;100103.06;;;5.61;100.00
3122;BME280;1571;52.524;14.104;2023-03-13T02:57:25;100103.66;;;5.49;100.00
3122;BME280;1571;52.524;14.104;2023-03-13T02:59:53;100101.38;;;5.43;100.00
3122;BME280;1571;52.524;14.104;2023-03-13T03:02:21;100089.81;;;5.46;100.00
3122;BME280;1571;52.524;14.104;2023-03-13T03:04:51;100084.50;;;5.47;100.00
3122;BME280;1571;52.524;14.104;2023-03-13T03:07:20;100089.59;;;5.50;100.00
3122;BME280;1571;52.524;14.104;2023-03-13T03:09:48;100078.44;;;5.45;100.00
3122;BME280;1571;52.524;14.104;2023-03-13T03:12:18;100077.28;;;5.51;100.00
3122;BME280;1571;52.524;14.104;2023-03-13T03:14:48;100077.38;;;5.65;100.00
3122;BME280;1571;52.524;14.104;2023-03-13T03:17:17;100064.81;;;5.54;100.00
3122;BME280;1571;52.524;14.104;2023-03-13T03:19:45;100070.84;;;5.56;100.00
3122;BME280;1571;52.524;14.104;2023-03-13T03:22:13;100060.31;;;5.56;100.00
3122;BME280;1571;52.524;14.104;2023-03-13T03:24:41;100056.56;;;5.60;100.00
3122;BME280;1571;52.524;14.104;2023-03-13T03:27:11;100056.13;;;5.52;100.00
3122;BME280;1571;52.524;14.104;2023-03-13T03:29:45;100050.63;;;5.57;100.00
3122;BME280;1571;52.524;14.104;2023-03-13T03:32:16;100048.09;;;5.71;100.00
3122;BME280;1571;52.524;14.104;2023-03-13T03:34:44;100038.91;;;5.62;100.00
3122;BME280;1571;52.524;14.104;2023-03-13T03:37:12;100037.03;;;5.64;100.00
3122;BME280;1571;52.524;14.104;2023-03-13T03:39:41;100033.81;;;5.59;100.00
3122;BME280;1571;52.524;14.104;2023-03-13T03:42:09;100036.38;;;5.61;100.00
3122;BME280;1571;52.524;14.104;2023-03-13T03:44:38;100029.66;;;5.71;100.00
3122;BME280;1571;52.524;14.104;2023-03-13T03:47:08;100024.00;;;5.79;100.00
3122;BME280;1571;52.524;14.104;2023-03-13T03:49:42;100009.22;;;5.92;100.00
3122;BME280;1571;52.524;14.104;2023-03-13T03:52:12;100011.59;;;5.81;100.00
3122;BME280;1571;52.524;14.104;2023-03-13T03:54:42;100009.13;;;5.78;100.00
3122;BME280;1571;52.524;14.104;2023-03-13T03:57:11;99999.94;;;5.85;100.00
3122;BME280;1571;52.524;14.104;2023-03-13T03:59:42;99993.28;;;5.95;100.00
3122;BME280;1571;52.524;14.104;2023-03-13T04:02:10;99993.28;;;5.95;100.00
3122;BME280;1571;52.524;14.104;2023-03-13T04:04:42;99984.88;;;6.04;100.00
3122;BME280;1571;52.524;14.104;2023-03-13T04:07:18;99981.03;;;5.94;100.00
3122;BME280;1571;52.524;14.104;2023-03-13T04:09:47;99979.50;;;5.90;100.00
3122;BME280;1571;52.524;14.104;2023-03-13T04:12:24;99973.38;;;6.05;100.00
3122;BME280;1571;52.524;14.104;2023-03-13T04:14:54;99956.91;;;6.02;100.00
3122;BME280;1571;52.524;14.104;2023-03-13T04:17:22;99961.91;;;6.07;100.00
3122;BME280;1571;52.524;14.104;2023-03-13T04:19:52;99956.41;;;5.95;100.00
3122;BME280;1571;52.524;14.104;2023-03-13T04:22:20;99941.94;;;6.02;100.00
3122;BME280;1571;52.524;14.104;2023-03-13T04:24:53;99955.88;;;6.04;100.00
3122;BME280;1571;52.524;14.104;2023-03-13T04:27:22;99942.63;;;6.06;100.00
3122;BME280;1571;52.524;14.104;2023-03-13T04:29:51;99943.66;;;6.03;100.00
3122;BME280;1571;52.524;14.104;2023-03-13T04:32:28;99939.03;;;6.07;100.00
3122;BME280;1571;52.524;14.104;2023-03-13T04:35:24;99922.19;;;6.10;100.00
3122;BME280;1571;52.524;14.104;2023-03-13T04:37:58;99912.44;;;6.12;100.00
3122;BME280;1571;52.524;14.104;2023-03-13T04:40:52;99915.41;;;6.05;100.00
3122;BME280;1571;52.524;14.104;2023-03-13T04:43:31;99910.97;;;6.22;100.00
3122;BME280;1571;52.524;14.104;2023-03-13T04:46:22;99909.53;;;6.16;100.00
3122;BME280;1571;52.524;14.104;2023-03-13T04:49:11;99899.66;;;6.20;100.00
3122;BME280;1571;52.524;14.104;2023-03-13T04:52:07;99896.53;;;6.13;100.00
3122;BME280;1571;52.524;14.104;2023-03-13T04:54:50;99891.28;;;6.13;100.00
3122;BME280;1571;52.524;14.104;2023-03-13T04:57:54;99886.66;;;6.17;100.00
3122;BME280;1571;52.524;14.104;2023-03-13T05:00:58;99881.91;;;6.08;100.00
3122;BME280;1571;52.524;14.104;2023-03-13T05:03:45;99873.44;;;6.02;100.00
3122;BME280;1571;52.524;14.104;2023-03-13T05:06:33;99866.09;;;6.08;100.00
3122;BME280;1571;52.524;14.104;2023-03-13T05:09:22;99862.00;;;6.18;100.00
3122;BME280;1571;52.524;14.104;2023-03-13T05:12:18;99857.84;;;6.14;100.00
3122;BME280;1571;52.524;14.104;2023-03-13T05:15:07;99845.91;;;6.08;100.00
3122;BME280;1571;52.524;14.104;2023-03-13T05:17:54;99845.44;;;6.16;100.00
3122;BME280;1571;52.524;14.104;2023-03-13T05:20:29;99838.81;;;6.09;100.00
3122;BME280;1571;52.524;14.104;2023-03-13T05:23:20;99837.06;;;6.23;100.00
3122;BME280;1571;52.524;14.104;2023-03-13T05:26:10;99839.22;;;6.17;100.00
3122;BME280;1571;52.524;14.104;2023-03-13T05:28:47;99841.22;;;6.28;100.00
3122;BME280;1571;52.524;14.104;2023-03-13T05:31:25;99826.78;;;6.19;100.00
3122;BME280;1571;52.524;14.104;2023-03-13T05:34:02;99822.91;;;6.10;100.00
3122;BME280;1571;52.524;14.104;2023-03-13T05:36:44;99821.72;;;6.16;100.00
3122;BME280;1571;52.524;14.104;2023-03-13T05:39:33;99821.44;;;6.20;100.00
3122;BME280;1571;52.524;14.104;2023-03-13T05:42:19;99808.47;;;6.17;100.00
3122;BME280;1571;52.524;14.104;2023-03-13T05:45:00;99799.59;;;6.18;100.00
3122;BME280;1571;52.524;14.104;2023-03-13T05:47:53;99793.50;;;6.18;100.00
3122;BME280;1571;52.524;14.104;2023-03-13T05:50:37;99792.16;;;6.11;100.00
3122;BME280;1571;52.524;14.104;2023-03-13T05:53:23;99786.00;;;6.10;100.00
3122;BME280;1571;52.524;14.104;2023-03-13T05:56:03;99771.84;;;6.27;100.00
3122;BME280;1571;52.524;14.104;2023-03-13T05:58:56;99769.97;;;6.29;100.00
3122;BME280;1571;52.524;14.104;2023-03-13T06:01:27;99764.69;;;6.29;100.00
3122;BME280;1571;52.524;14.104;2023-03-13T06:04:03;99760.63;;;6.23;100.00
3122;BME280;1571;52.524;14.104;2023-03-13T06:06:34;99756.22;;;6.24;100.00
3122;BME280;1571;52.524;14.104;2023-03-13T06:09:04;99758.94;;;6.37;100.00
3122;BME280;1571;52.524;14.104;2023-03-13T06:11:33;99755.28;;;6.39;100.00
3122;BME280;1571;52.524;14.104;2023-03-13T06:14:06;99752.00;;;6.50;100.00
3122;BME280;1571;52.524;14.104;2023-03-13T06:16:40;99747.19;;;6.42;100.00
3122;BME280;1571;52.524;14.104;2023-03-13T06:19:14;99728.19;;;6.52;100.00
3122;BME280;1571;52.524;14.104;2023-03-13T06:21:42;99724.59;;;6.53;100.00
3122;BME280;1571;52.524;14.104;2023-03-13T06:24:10;99719.78;;;6.59;100.00
3122;BME280;1571;52.524;14.104;2023-03-13T06:26:39;99725.16;;;6.58;100.00
3122;BME280;1571;52.524;14.104;2023-03-13T06:29:09;99713.28;;;6.65;100.00
3122;BME280;1571;52.524;14.104;2023-03-13T06:31:37;99716.38;;;6.57;100.00
3122;BME280;1571;52.524;14.104;2023-03-13T06:34:07;99703.09;;;6.73;100.00
3122;BME280;1571;52.524;14.104;2023-03-13T06:36:35;99700.84;;;6.67;100.00
3122;BME280;1571;52.524;14.104;2023-03-13T06:39:03;99696.63;;;6.64;100.00
3122;BME280;1571;52.524;14.104;2023-03-13T06:41:32;99689.25;;;6.70;100.00
3122;BME280;1571;52.524;14.104;2023-03-13T06:44:00;99682.56;;;6.78;100.00
3122;BME280;1571;52.524;14.104;2023-03-13T06:46:29;99680.59;;;6.67;100.00
3122;BME280;1571;52.524;14.104;2023-03-13T06:48:58;99678.50;;;6.73;100.00
3122;BME280;1571;52.524;14.104;2023-03-13T06:51:26;99668.41;;;6.79;100.00
3122;BME280;1571;52.524;14.104;2023-03-13T06:53:54;99669.91;;;6.83;100.00
3122;BME280;1571;52.524;14.104;2023-03-13T06:56:23;99664.63;;;6.83;100.00
3122;BME280;1571;52.524;14.104;2023-03-13T06:58:52;99667.66;;;6.77;100.00
3122;BME280;1571;52.524;14.104;2023-03-13T07:01:20;99660.13;;;6.85;100.00
3122;BME280;1571;52.524;14.104;2023-03-13T07:03:50;99664.44;;;6.86;100.00
3122;BME280;1571;52.524;14.104;2023-03-13T07:06:18;99643.16;;;6.90;100.00
3122;BME280;1571;52.524;14.104;2023-03-13T07:08:46;99650.06;;;6.78;100.00
3122;BME280;1571;52.524;14.104;2023-03-13T07:11:15;99638.03;;;7.01;100.00
3122;BME280;1571;52.524;14.104;2023-03-13T07:13:43;99637.31;;;7.12;100.00
3122;BME280;1571;52.524;14.104;2023-03-13T07:16:12;99629.50;;;7.10;100.00
3122;BME280;1571;52.524;14.104;2023-03-13T07:18:40;99615.06;;;7.28;100.00
3122;BME280;1571;52.524;14.104;2023-03-13T07:21:12;99610.53;;;7.30;100.00
3122;BME280;1571;52.524;14.104;2023-03-13T07:23:40;99605.03;;;7.21;100.00
3122;BME280;1571;52.524;14.104;2023-03-13T07:26:11;99597.69;;;7.39;100.00
3122;BME280;1571;52.524;14.104;2023-03-13T07:28:40;99591.72;;;7.22;100.00
3122;BME280;1571;52.524;14.104;2023-03-13T07:31:11;99584.50;;;7.39;100.00
3122;BME280;1571;52.524;14.104;2023-03-13T07:33:40;99577.41;;;7.39;100.00
3122;BME280;1571;52.524;14.104;2023-03-13T07:36:11;99571.28;;;7.39;100.00
3122;BME280;1571;52.524;14.104;2023-03-13T07:38:40;99559.84;;;7.25;100.00
3122;BME280;1571;52.524;14.104;2023-03-13T07:41:10;99555.84;;;7.33;100.00
3122;BME280;1571;52.524;14.104;2023-03-13T07:43:40;99555.22;;;7.42;100.00
3122;BME280;1571;52.524;14.104;2023-03-13T07:46:11;99547.63;;;7.37;100.00
3122;BME280;1571;52.524;14.104;2023-03-13T07:48:41;99557.75;;;7.56;100.00
3122;BME280;1571;52.524;14.104;2023-03-13T07:51:12;99548.88;;;7.70;100.00
3122;BME280;1571;52.524;14.104;2023-03-13T07:53:40;99542.34;;;7.50;100.00
3122;BME280;1571;52.524;14.104;2023-03-13T07:56:10;99543.38;;;7.47;100.00
3122;BME280;1571;52.524;14.104;2023-03-13T07:58:39;99544.44;;;7.45;100.00
3122;BME280;1571;52.524;14.104;2023-03-13T08:01:09;99542.97;;;7.41;100.00
3122;BME280;1571;52.524;14.104;2023-03-13T08:03:38;99544.03;;;7.51;100.00
3122;BME280;1571;52.524;14.104;2023-03-13T08:06:09;99531.34;;;7.43;100.00
3122;BME280;1571;52.524;14.104;2023-03-13T08:08:40;99525.31;;;7.54;100.00
3122;BME280;1571;52.524;14.104;2023-03-13T08:11:09;99532.63;;;7.50;100.00
3122;BME280;1571;52.524;14.104;2023-03-13T08:13:38;99517.63;;;7.51;100.00
3122;BME280;1571;52.524;14.104;2023-03-13T08:16:09;99510.84;;;7.60;100.00
3122;BME280;1571;52.524;14.104;2023-03-13T08:18:39;99509.38;;;7.68;100.00
3122;BME280;1571;52.524;14.104;2023-03-13T08:21:09;99505.25;;;7.51;100.00
3122;BME280;1571;52.524;14.104;2023-03-13T08:23:40;99496.59;;;7.62;100.00
3122;BME280;1571;52.524;14.104;2023-03-13T08:26:10;99497.31;;;7.64;100.00
3122;BME280;1571;52.524;14.104;2023-03-13T08:28:39;99500.72;;;7.66;100.00
3122;BME280;1571;52.524;14.104;2023-03-13T08:31:09;99492.66;;;7.81;100.00
3122;BME280;1571;52.524;14.104;2023-03-13T08:33:39;99495.19;;;7.69;100.00
3122;BME280;1571;52.524;14.104;2023-03-13T08:36:10;99508.06;;;7.87;100.00
3122;BME280;1571;52.524;14.104;2023-03-13T08:38:40;99501.94;;;7.86;100.00
3122;BME280;1571;52.524;14.104;2023-03-13T08:41:13;99506.69;;;7.94;100.00
3122;BME280;1571;52.524;14.104;2023-03-13T08:43:41;99498.13;;;7.90;100.00
3122;BME280;1571;52.524;14.104;2023-03-13T08:46:10;99503.63;;;7.87;100.00
3122;BME280;1571;52.524;14.104;2023-03-13T08:48:39;99507.84;;;7.90;100.00
3122;BME280;1571;52.524;14.104;2023-03-13T08:51:09;99503.44;;;7.90;100.00
3122;BME280;1571;52.524;14.104;2023-03-13T08:53:40;99498.13;;;7.90;100.00
3122;BME280;1571;52.524;14.104;2023-03-13T08:56:12;99491.16;;;7.89;100.00
3122;BME280;1571;52.524;14.104;2023-03-13T08:58:40;99487.75;;;8.00;100.00
3122;BME280;1571;52.524;14.104;2023-03-13T09:01:10;99494.09;;;7.98;100.00
3122;BME280;1571;52.524;14.104;2023-03-13T09:03:39;99506.56;;;7.96;100.00
3122;BME280;1571;52.524;14.104;2023-03-13T09:06:09;99503.94;;;7.96;100.00
3122;BME280;1571;52.524;14.104;2023-03-13T09:08:38;99501.28;;;8.08;100.00
3122;BME280;1571;52.524;14.104;2023-03-13T09:11:10;99499.56;;;8.07;100.00
3122;BME280;1571;52.524;14.104;2023-03-13T09:13:40;99506.34;;;7.99;100.00
3122;BME280;1571;52.524;14.104;2023-03-13T09:16:11;99509.44;;;7.92;100.00
3122;BME280;1571;52.524;14.104;2023-03-13T09:18:40;99515.34;;;7.96;100.00
3122;BME280;1571;52.524;14.104;2023-03-13T09:21:11;99507.09;;;8.01;100.00
3122;BME280;1571;52.524;14.104;2023-03-13T09:23:40;99513.00;;;8.04;100.00
3122;BME280;1571;52.524;14.104;2023-03-13T09:26:09;99513.09;;;8.16;100.00
3122;BME280;1571;52.524;14.104;2023-03-13T09:28:38;99504.19;;;8.17;100.00
3122;BME280;1571;52.524;14.104;2023-03-13T09:31:09;99506.97;;;8.15;100.00
3122;BME280;1571;52.524;14.104;2023-03-13T09:33:38;99512.41;;;8.25;100.00
3122;BME280;1571;52.524;14.104;2023-03-13T09:36:07;99501.84;;;8.25;100.00
3122;BME280;1571;52.524;14.104;2023-03-13T09:38:36;99507.34;;;8.22;100.00
3122;BME280;1571;52.524;14.104;2023-03-13T09:41:19;99515.22;;;8.34;100.00
3122;BME280;1571;52.524;14.104;2023-03-13T09:43:50;99497.78;;;8.45;100.00
3122;BME280;1571;52.524;14.104;2023-03-13T09:46:23;99500.28;;;8.46;100.00
3122;BME280;1571;52.524;14.104;2023-03-13T09:48:56;99498.84;;;8.42;100.00
3122;BME280;1571;52.524;14.104;2023-03-13T09:51:28;99506.84;;;8.53;100.00
3122;BME280;1571;52.524;14.104;2023-03-13T09:54:02;99498.38;;;8.48;100.00
3122;BME280;1571;52.524;14.104;2023-03-13T09:56:39;99507.25;;;8.60;100.00
3122;BME280;1571;52.524;14.104;2023-03-13T09:59:14;99504.69;;;8.59;100.00
3122;BME280;1571;52.524;14.104;2023-03-13T10:01:46;99505.63;;;8.58;100.00
3122;BME280;1571;52.524;14.104;2023-03-13T10:04:27;99499.13;;;8.50;100.00
3122;BME280;1571;52.524;14.104;2023-03-13T10:06:56;99501.31;;;8.57;100.00
3122;BME280;1571;52.524;14.104;2023-03-13T10:09:28;99500.88;;;8.63;100.00
3122;BME280;1571;52.524;14.104;2023-03-13T10:12:05;99496.31;;;8.65;100.00
3122;BME280;1571;52.524;14.104;2023-03-13T10:14:40;99504.84;;;8.68;100.00
3122;BME280;1571;52.524;14.104;2023-03-13T10:17:19;99501.25;;;8.69;100.00
3122;BME280;1571;52.524;14.104;2023-03-13T10:19:54;99508.84;;;8.74;100.00
3122;BME280;1571;52.524;14.104;2023-03-13T10:22:26;99498.53;;;8.82;100.00
3122;BME280;1571;52.524;14.104;2023-03-13T10:24:57;99498.53;;;8.82;100.00
3122;BME280;1571;52.524;14.104;2023-03-13T10:27:28;99499.16;;;8.86;100.00
3122;BME280;1571;52.524;14.104;2023-03-13T10:29:56;99499.25;;;8.84;100.00
3122;BME280;1571;52.524;14.104;2023-03-13T10:32:26;99498.91;;;8.89;100.00
3122;BME280;1571;52.524;14.104;2023-03-13T10:34:56;99504.34;;;8.87;100.00
3122;BME280;1571;52.524;14.104;2023-03-13T10:37:26;99497.72;;;8.93;100.00
3122;BME280;1571;52.524;14.104;2023-03-13T10:40:11;99492.44;;;8.93;100.00
3122;BME280;1571;52.524;14.104;2023-03-13T10:42:43;99489.44;;;8.98;100.00
3122;BME280;1571;52.524;14.104;2023-03-13T10:45:14;99486.75;;;8.86;100.00
3122;BME280;1571;52.524;14.104;2023-03-13T10:47:43;99486.31;;;8.92;100.00
3122;BME280;1571;52.524;14.104;2023-03-13T10:50:17;99472.97;;;8.94;100.00
3122;BME280;1571;52.524;14.104;2023-03-13T10:52:48;99463.25;;;9.06;100.00
3122;BME280;1571;52.524;14.104;2023-03-13T10:55:18;99488.53;;;9.21;100.00
3122;BME280;1571;52.524;14.104;2023-03-13T10:57:57;99474.34;;;9.33;100.00
3122;BME280;1571;52.524;14.104;2023-03-13T11:00:33;99466.53;;;9.54;100.00
3122;BME280;1571;52.524;14.104;2023-03-13T11:03:06;99455.81;;;9.67;100.00
3122;BME280;1571;52.524;14.104;2023-03-13T11:05:41;99437.00;;;9.70;100.00
3122;BME280;1571;52.524;14.104;2023-03-13T11:08:20;99424.72;;;9.80;100.00
3122;BME280;1571;52.524;14.104;2023-03-13T11:10:52;99421.59;;;9.87;100.00
3122;BME280;1571;52.524;14.104;2023-03-13T11:13:33;99394.53;;;10.04;100.00
3122;BME280;1571;52.524;14.104;2023-03-13T11:16:18;99396.16;;;10.28;100.00
3122;BME280;1571;52.524;14.104;2023-03-13T11:19:09;99378.53;;;10.27;100.00
3122;BME280;1571;52.524;14.104;2023-03-13T11:21:48;99368.63;;;10.40;100.00
3122;BME280;1571;52.524;14.104;2023-03-13T11:24:25;99349.09;;;10.41;100.00
3122;BME280;1571;52.524;14.104;2023-03-13T11:27:03;99350.00;;;10.51;100.00
3122;BME280;1571;52.524;14.104;2023-03-13T11:29:41;99331.94;;;10.66;100.00
3122;BME280;1571;52.524;14.104;2023-03-13T11:32:21;99316.06;;;10.76;100.00
3122;BME280;1571;52.524;14.104;2023-03-13T11:34:53;99310.44;;;10.90;100.00
3122;BME280;1571;52.524;14.104;2023-03-13T11:37:27;99288.72;;;10.85;100.00
3122;BME280;1571;52.524;14.104;2023-03-13T11:40:08;99273.47;;;11.08;100.00
3122;BME280;1571;52.524;14.104;2023-03-13T11:42:58;99272.38;;;11.30;100.00
3122;BME280;1571;52.524;14.104;2023-03-13T11:46:06;99258.72;;;11.44;100.00
3122;BME280;1571;52.524;14.104;2023-03-13T11:48:52;99247.50;;;11.31;100.00
3122;BME280;1571;52.524;14.104;2023-03-13T11:51:26;99243.63;;;11.55;100.00
3122;BME280;1571;52.524;14.104;2023-03-13T11:54:10;99237.88;;;11.50;100.00
3122;BME280;1571;52.524;14.104;2023-03-13T11:56:52;99240.13;;;11.44;100.00
3122;BME280;1571;52.524;14.104;2023-03-13T11:59:31;99227.66;;;11.45;100.00
3122;BME280;1571;52.524;14.104;2023-03-13T12:02:14;99247.56;;;11.51;100.00
3122;BME280;1571;52.524;14.104;2023-03-13T12:04:48;99226.84;;;11.44;100.00
3122;BME280;1571;52.524;14.104;2023-03-13T12:07:24;99226.00;;;11.63;100.00
3122;BME280;1571;52.524;14.104;2023-03-13T12:09:56;99211.06;;;11.92;100.00
3122;BME280;1571;52.524;14.104;2023-03-13T12:12:35;99203.75;;;12.03;100.00
3122;BME280;1571;52.524;14.104;2023-03-13T12:15:16;99201.63;;;12.17;100.00
3122;BME280;1571;52.524;14.104;2023-03-13T12:17:51;99193.38;;;12.10;100.00
3122;BME280;1571;52.524;14.104;2023-03-13T12:20:24;99185.97;;;12.14;100.00
3122;BME280;1571;52.524;14.104;2023-03-13T12:23:13;99183.94;;;12.35;100.00
3122;BME280;1571;52.524;14.104;2023-03-13T12:25:46;99179.50;;;12.26;100.00
3122;BME280;1571;52.524;14.104;2023-03-13T12:28:22;99173.56;;;12.42;100.00
3122;BME280;1571;52.524;14.104;2023-03-13T12:30:59;99179.28;;;12.47;100.00
3122;BME280;1571;52.524;14.104;2023-03-13T12:33:35;99164.59;;;12.43;100.00
3122;BME280;1571;52.524;14.104;2023-03-13T12:36:10;99176.88;;;12.54;100.00
3122;BME280;1571;52.524;14.104;2023-03-13T12:38:45;99162.59;;;12.55;100.00
3122;BME280;1571;52.524;14.104;2023-03-13T12:41:21;99180.31;;;12.91;100.00
3122;BME280;1571;52.524;14.104;2023-03-13T12:43:52;99162.84;;;13.07;100.00
3122;BME280;1571;52.524;14.104;2023-03-13T12:46:37;99153.28;;;13.14;100.00
3122;BME280;1571;52.524;14.104;2023-03-13T12:49:29;99148.88;;;13.23;100.00
3122;BME280;1571;52.524;14.104;2023-03-13T12:55:22;99145.13;;;13.16;100.00
3122;BME280;1571;52.524;14.104;2023-03-13T12:58:09;99148.66;;;13.34;100.00
3122;BME280;1571;52.524;14.104;2023-03-13T13:00:40;99127.56;;;13.59;100.00
3122;BME280;1571;52.524;14.104;2023-03-13T13:03:19;99127.94;;;13.64;99.68
3122;BME280;1571;52.524;14.104;2023-03-13T13:06:03;99130.63;;;13.46;99.84
3122;BME280;1571;52.524;14.104;2023-03-13T13:08:36;99125.63;;;13.69;99.06
3122;BME280;1571;52.524;14.104;2023-03-13T13:14:56;99112.94;;;14.49;96.16
3122;BME280;1571;52.524;14.104;2023-03-13T13:17:59;99113.84;;;14.58;95.28
3122;BME280;1571;52.524;14.104;2023-03-13T13:20:40;99108.75;;;14.47;93.45
3122;BME280;1571;52.524;14.104;2023-03-13T13:23:33;99105.53;;;14.35;93.39
3122;BME280;1571;52.524;14.104;2023-03-13T13:32:34;99097.06;;;14.40;92.36
3122;BME280;1571;52.524;14.104;2023-03-13T13:35:05;99093.47;;;14.57;92.28
3122;BME280;1571;52.524;14.104;2023-03-13T13:37:33;99079.19;;;14.83;91.53
3122;BME280;1571;52.524;14.104;2023-03-13T13:40:18;99090.72;;;14.75;89.97
3122;BME280;1571;52.524;14.104;2023-03-13T13:42:48;99090.53;;;14.68;89.99
3122;BME280;1571;52.524;14.104;2023-03-13T13:45:23;99088.53;;;14.70;89.94
3122;BME280;1571;52.524;14.104;2023-03-13T13:51:32;99083.19;;;14.78;89.07
3122;BME280;1571;52.524;14.104;2023-03-13T13:54:01;99073.63;;;14.68;89.40
3122;BME280;1571;52.524;14.104;2023-03-13T13:56:49;99089.34;;;14.79;89.02
3122;BME280;1571;52.524;14.104;2023-03-13T13:59:32;99082.31;;;14.70;89.98